KEVV/EVV METAR and TAF weather

Enter ICAO airport designator
Station Type Date Time Source
KEVV METAR 2020/03/29 14:54 UTC NOAA

KEVV 291454Z 25024G35KT 10SM BKN050 14/04 A2992 RMK AO2 PK WND 27035/1400 SLP131 T01390039 51046 $


Station Type Date Time Source
KEVV Decoded METAR 2020/03/29 14:54 UTC NOAA

EVANSVILLE REGIONAL, IN, United States (KEVV) 38-02N 087-32W 117M
Mar 29, 2020 - 10:54 AM EDT / 2020.03.29 1454 UTC
Wind: from the WSW (250 degrees) at 28 MPH (24 KT) gusting to 40 MPH (35 KT):0
Visibility: 10 mile(s):0
Sky conditions: mostly cloudy
Temperature: 57.0 F (13.9 C)
Dew Point: 39.0 F (3.9 C)
Relative Humidity: 50%
Pressure (altimeter): 29.92 in. Hg (1013 hPa)
Pressure tendency: 0.14 inches (4.6 hPa) higher than three hours ago
ob: KEVV 291454Z 25024G35KT 10SM BKN050 14/04 A2992 RMK AO2 PK WND 27035/1400 SLP131 T01390039 51046
cycle: 15

Station Type Date Time Source
KEVV TAF 2020/03/29 12:22 UTC NOAA

TAF KEVV 291120Z 2912/3012 22014G24KT P6SM FEW250
FM291500 25018G29KT P6SM FEW120
FM292300 25013G21KT P6SM SKC
FM300000 24008KT P6SM SKC
FM300900 27006KT P6SM SKC

Example: see airport list